createdAt,value
2022-09-14T00:01:37.189Z,7.93
2022-09-14T00:04:08.013Z,6.95
2022-09-14T00:06:36.336Z,8.38
2022-09-14T00:09:06.939Z,10.38
2022-09-14T00:11:36.704Z,8.93
2022-09-14T00:14:07.383Z,10.32
2022-09-14T00:16:37.437Z,6.68
2022-09-14T00:19:07.830Z,6.15
2022-09-14T00:21:36.950Z,6.53
2022-09-14T00:24:07.132Z,6.40
2022-09-14T00:26:35.588Z,6.65
2022-09-14T00:29:05.105Z,7.10
2022-09-14T00:31:36.201Z,9.27
2022-09-14T00:34:05.164Z,9.27
2022-09-14T00:36:34.157Z,11.55
2022-09-14T00:39:02.024Z,12.70
2022-09-14T00:41:32.965Z,13.85
2022-09-14T00:44:02.874Z,13.98
2022-09-14T00:46:32.252Z,14.52
2022-09-14T00:49:03.947Z,16.00
2022-09-14T00:51:33.895Z,15.38
2022-09-14T00:54:02.759Z,18.27
2022-09-14T00:56:31.173Z,16.55
2022-09-14T00:59:01.130Z,16.90
2022-09-14T01:01:29.911Z,18.48
2022-09-14T01:03:58.040Z,17.27
2022-09-14T01:06:37.176Z,18.05
2022-09-14T01:09:16.238Z,17.45
2022-09-14T01:11:56.863Z,17.25
2022-09-14T01:14:30.015Z,16.70
2022-09-14T01:17:04.346Z,17.48
2022-09-14T01:19:43.659Z,17.58
2022-09-14T01:22:19.128Z,19.65
2022-09-14T01:24:50.896Z,21.83
2022-09-14T01:27:27.802Z,22.45
2022-09-14T01:30:07.493Z,22.73
2022-09-14T01:32:40.731Z,23.50
2022-09-14T01:35:16.267Z,24.85
2022-09-14T01:37:47.168Z,23.60
2022-09-14T01:40:20.172Z,23.00
2022-09-14T01:42:55.872Z,22.67
2022-09-14T01:45:27.387Z,23.95
2022-09-14T01:47:58.650Z,23.90
2022-09-14T01:50:33.962Z,21.80
2022-09-14T01:53:08.669Z,19.80
2022-09-14T01:55:43.753Z,21.05
2022-09-14T01:58:17.510Z,21.27
2022-09-14T02:00:47.395Z,18.83
2022-09-14T02:03:20.047Z,17.88
2022-09-14T02:05:56.683Z,17.95
2022-09-14T02:08:27.611Z,16.30
2022-09-14T02:10:55.615Z,18.20
2022-09-14T02:13:25.211Z,17.42
2022-09-14T02:15:53.657Z,19.00
2022-09-14T02:18:22.028Z,18.42
2022-09-14T02:20:55.091Z,18.90
2022-09-14T02:23:23.450Z,19.27
2022-09-14T02:25:51.465Z,19.63
2022-09-14T02:28:19.539Z,20.35
2022-09-14T02:30:55.369Z,20.88
2022-09-14T02:33:31.224Z,19.73
2022-09-14T02:36:07.067Z,20.73
2022-09-14T02:38:41.923Z,20.77
2022-09-14T02:41:18.425Z,20.52
2022-09-14T02:43:51.840Z,20.55
2022-09-14T02:46:30.569Z,20.65
2022-09-14T02:49:05.460Z,20.85
2022-09-14T02:51:38.148Z,20.13
2022-09-14T02:54:09.925Z,19.48
2022-09-14T02:56:38.386Z,19.35
2022-09-14T02:59:07.123Z,19.20
2022-09-14T03:01:36.507Z,20.10
2022-09-14T03:04:04.475Z,19.25
2022-09-14T03:06:32.686Z,20.33
2022-09-14T03:09:00.977Z,19.95
2022-09-14T03:11:28.909Z,22.40
2022-09-14T03:13:56.789Z,22.83
2022-09-14T03:16:24.770Z,22.50
2022-09-14T03:18:54.126Z,21.52
2022-09-14T03:21:22.028Z,21.90
2022-09-14T03:23:52.269Z,23.40
2022-09-14T03:26:22.028Z,22.20
2022-09-14T03:28:51.687Z,20.60
2022-09-14T03:31:20.109Z,21.30
2022-09-14T03:33:48.544Z,20.70
2022-09-14T03:36:19.308Z,21.98
2022-09-14T03:38:49.063Z,21.75
2022-09-14T03:41:17.545Z,22.45
2022-09-14T03:43:45.841Z,20.80
2022-09-14T03:46:15.860Z,21.50
2022-09-14T03:48:44.792Z,22.25
2022-09-14T03:51:14.501Z,21.67
2022-09-14T03:53:44.890Z,20.63
2022-09-14T03:56:15.240Z,20.90
2022-09-14T03:58:43.771Z,20.77
2022-09-14T04:01:14.519Z,21.13
2022-09-14T04:03:43.002Z,22.20
2022-09-14T04:06:11.352Z,22.17
2022-09-14T04:08:41.218Z,22.35
2022-09-14T04:11:11.936Z,21.77
2022-09-14T04:13:40.383Z,22.42
2022-09-14T04:16:08.594Z,23.38
2022-09-14T04:18:36.576Z,25.23
2022-09-14T04:21:08.489Z,24.02
2022-09-14T04:23:51.335Z,21.50
2022-09-14T04:26:28.292Z,22.23
2022-09-14T04:28:57.467Z,22.70
2022-09-14T04:31:26.295Z,24.55
2022-09-14T04:33:57.086Z,19.38
2022-09-14T04:36:29.442Z,21.70
2022-09-14T04:38:58.830Z,22.25
2022-09-14T04:41:29.011Z,20.60
2022-09-14T04:43:57.678Z,21.50
2022-09-14T04:46:29.308Z,20.70
2022-09-14T04:48:57.634Z,21.98
2022-09-14T04:51:27.394Z,23.77
2022-09-14T04:53:57.961Z,24.80
2022-09-14T04:56:28.465Z,23.88
2022-09-14T04:58:58.856Z,22.17
2022-09-14T05:01:29.449Z,23.40
2022-09-14T05:03:58.692Z,23.08
2022-09-14T05:06:28.261Z,24.92
2022-09-14T05:08:56.888Z,25.17
2022-09-14T05:11:28.575Z,26.15
2022-09-14T05:13:57.538Z,25.33
2022-09-14T05:16:27.942Z,23.92
2022-09-14T05:18:58.474Z,23.75
2022-09-14T05:21:26.549Z,20.55
2022-09-14T05:23:56.236Z,20.73
2022-09-14T05:26:25.368Z,21.00
2022-09-14T05:28:56.501Z,18.33
2022-09-14T05:31:25.323Z,19.90
2022-09-14T05:33:54.110Z,21.83
2022-09-14T05:36:22.202Z,20.52
2022-09-14T05:38:50.473Z,20.63
2022-09-14T05:41:18.667Z,19.48
2022-09-14T05:43:46.833Z,17.55
2022-09-14T05:46:20.205Z,20.77
2022-09-14T05:48:51.513Z,19.63
2022-09-14T05:51:21.350Z,19.00
2022-09-14T05:53:50.335Z,20.13
2022-09-14T05:56:19.393Z,21.05
2022-09-14T05:58:48.088Z,20.42
2022-09-14T06:01:18.835Z,22.58
2022-09-14T06:03:47.798Z,21.13
2022-09-14T06:06:17.578Z,17.20
2022-09-14T06:08:46.605Z,15.45
2022-09-14T06:11:16.875Z,14.88
2022-09-14T06:13:46.674Z,14.20
2022-09-14T06:16:17.661Z,14.68
2022-09-14T06:18:46.902Z,14.85
2022-09-14T06:21:16.746Z,15.45
2022-09-14T06:23:45.093Z,18.15
2022-09-14T06:26:17.023Z,16.17
2022-09-14T06:28:45.675Z,15.73
2022-09-14T06:31:14.426Z,18.80
2022-09-14T06:33:46.562Z,15.90
2022-09-14T06:36:16.774Z,15.52
2022-09-14T06:38:44.909Z,17.63
2022-09-14T06:41:14.976Z,16.20
2022-09-14T06:43:44.206Z,17.20
2022-09-14T06:46:14.721Z,14.52
2022-09-14T06:48:46.993Z,15.60
2022-09-14T06:51:17.883Z,14.88
2022-09-14T06:53:47.000Z,18.38
2022-09-14T06:56:15.607Z,13.82
2022-09-14T06:58:43.833Z,13.60
2022-09-14T07:01:14.370Z,11.57
2022-09-14T07:03:43.943Z,9.65
2022-09-14T07:06:15.907Z,9.63
2022-09-14T07:08:44.428Z,9.48
2022-09-14T07:11:14.162Z,10.13
2022-09-14T07:13:42.163Z,9.43
2022-09-14T07:16:10.616Z,9.27
2022-09-14T07:18:39.054Z,7.93
2022-09-14T07:21:08.623Z,12.00
2022-09-14T07:23:39.410Z,7.43
2022-09-14T07:26:11.088Z,7.50
2022-09-14T07:28:40.573Z,7.55
2022-09-14T07:31:17.712Z,6.90
2022-09-14T07:33:45.834Z,8.35
2022-09-14T07:36:14.711Z,5.45
2022-09-14T07:38:52.846Z,6.93
2022-09-14T07:41:22.219Z,6.35
2022-09-14T07:43:51.156Z,8.23
2022-09-14T07:46:20.183Z,5.85
2022-09-14T07:48:49.229Z,5.82
2022-09-14T07:51:17.833Z,6.05
2022-09-14T07:53:47.235Z,6.93
2022-09-14T07:56:17.090Z,10.60
2022-09-14T07:58:45.524Z,10.60
2022-09-14T08:01:15.442Z,7.75
2022-09-14T08:03:44.658Z,8.32
2022-09-14T08:06:14.414Z,7.38
2022-09-14T08:08:44.784Z,7.55
2022-09-14T08:11:17.317Z,7.53
2022-09-14T08:13:47.086Z,8.18
2022-09-14T08:16:15.432Z,8.00
2022-09-14T08:18:43.493Z,9.50
2022-09-14T08:21:13.856Z,9.02
2022-09-14T08:23:42.857Z,9.30
2022-09-14T08:26:14.141Z,10.15
2022-09-14T08:28:43.075Z,8.52
2022-09-14T08:31:13.287Z,6.40
2022-09-14T08:33:43.232Z,7.72
2022-09-14T08:36:13.710Z,8.73
2022-09-14T08:38:42.289Z,9.68
2022-09-14T08:41:24.244Z,8.98
2022-09-14T08:43:53.280Z,8.82
2022-09-14T08:46:30.107Z,8.15
2022-09-14T08:48:58.722Z,7.18
2022-09-14T08:51:27.207Z,9.30
2022-09-14T08:53:59.497Z,9.20
2022-09-14T08:56:34.040Z,10.85
2022-09-14T08:59:26.759Z,11.88
2022-09-14T09:02:06.699Z,11.70
2022-09-14T09:04:45.625Z,9.23
2022-09-14T09:07:21.227Z,9.45
2022-09-14T09:09:51.457Z,9.57
2022-09-14T09:12:23.016Z,8.88
2022-09-14T09:14:55.520Z,10.43
2022-09-14T09:17:27.324Z,11.02
2022-09-14T09:20:04.566Z,12.30
2022-09-14T09:22:39.641Z,9.93
2022-09-14T09:25:15.952Z,10.25
2022-09-14T09:27:47.756Z,9.05
2022-09-14T09:30:16.756Z,8.88
2022-09-14T09:32:44.894Z,7.97
2022-09-14T09:35:18.214Z,7.43
2022-09-14T09:37:46.241Z,4.57
2022-09-14T09:40:19.811Z,4.95
2022-09-14T09:43:10.293Z,5.32
2022-09-14T09:45:50.792Z,4.88
2022-09-14T09:48:21.488Z,4.70
2022-09-14T09:50:58.777Z,6.05
2022-09-14T09:53:27.063Z,8.25
2022-09-14T09:55:55.897Z,8.95
2022-09-14T09:58:31.208Z,6.50
2022-09-14T10:01:01.752Z,8.05
2022-09-14T10:03:33.647Z,7.97
2022-09-14T10:06:04.345Z,8.85
2022-09-14T10:08:35.927Z,7.22
2022-09-14T10:11:05.001Z,6.07
2022-09-14T10:13:41.004Z,6.43
2022-09-14T10:16:19.631Z,6.82
2022-09-14T10:18:49.763Z,4.95
2022-09-14T10:21:19.291Z,5.50
2022-09-14T10:23:47.767Z,5.32
2022-09-14T10:26:23.356Z,5.80
2022-09-14T10:28:53.183Z,5.32
2022-09-14T10:31:31.353Z,6.30
2022-09-14T10:34:02.720Z,5.97
2022-09-14T10:36:32.125Z,6.63
2022-09-14T10:39:08.646Z,5.00
2022-09-14T10:41:43.585Z,4.95
2022-09-14T10:44:45.625Z,5.32
2022-09-14T10:47:29.432Z,4.97
2022-09-14T10:50:14.603Z,5.53
2022-09-14T10:52:50.984Z,5.68
2022-09-14T10:55:35.298Z,4.63
2022-09-14T10:58:21.261Z,3.67
2022-09-14T11:01:03.105Z,3.75
2022-09-14T11:03:51.221Z,3.30
2022-09-14T11:06:33.092Z,3.45
2022-09-14T11:09:07.213Z,2.97
2022-09-14T11:11:46.568Z,3.10
2022-09-14T11:14:31.137Z,3.13
2022-09-14T11:17:13.757Z,3.05
2022-09-14T11:19:47.885Z,2.83
2022-09-14T11:22:23.560Z,2.28
2022-09-14T11:24:55.944Z,3.40
2022-09-14T11:27:29.730Z,3.00
2022-09-14T11:30:02.789Z,2.72
2022-09-14T11:32:36.112Z,2.50
2022-09-14T11:35:12.882Z,2.97
2022-09-14T11:37:44.035Z,2.63
2022-09-14T11:40:20.994Z,2.55
2022-09-14T11:42:56.389Z,3.05
2022-09-14T11:45:30.104Z,2.50
2022-09-14T11:48:40.954Z,2.90
2022-09-14T11:51:05.129Z,3.03
2022-09-14T11:53:34.628Z,2.78
2022-09-14T11:56:02.939Z,2.58
2022-09-14T11:58:31.957Z,2.80
2022-09-14T12:01:03.728Z,2.40
2022-09-14T12:04:07.886Z,2.75
2022-09-14T12:06:55.211Z,2.90
2022-09-14T12:09:43.840Z,2.47
2022-09-14T12:12:31.440Z,3.22
2022-09-14T12:15:19.111Z,2.97
2022-09-14T12:17:47.338Z,2.78
2022-09-14T12:20:44.187Z,2.70
2022-09-14T12:23:26.357Z,2.28
2022-09-14T12:26:00.161Z,2.50
2022-09-14T12:28:38.520Z,2.60
2022-09-14T12:31:29.765Z,2.58
2022-09-14T12:34:19.324Z,2.38
2022-09-14T12:37:29.402Z,2.30
2022-09-14T12:40:36.357Z,2.30
2022-09-14T12:43:48.308Z,2.10
2022-09-14T12:46:42.360Z,2.40
2022-09-14T12:49:37.670Z,2.80
2022-09-14T12:52:26.866Z,2.35
2022-09-14T12:55:09.106Z,2.78
2022-09-14T12:57:47.431Z,2.90
2022-09-14T13:00:18.416Z,2.88
2022-09-14T13:03:17.440Z,2.78
2022-09-14T13:05:46.466Z,2.72
2022-09-14T13:08:20.456Z,2.67
2022-09-14T13:10:51.842Z,3.00
2022-09-14T13:13:24.677Z,2.67
2022-09-14T13:15:59.398Z,2.88
2022-09-14T13:18:33.802Z,2.85
2022-09-14T13:21:12.243Z,2.80
2022-09-14T13:23:44.658Z,3.20
2022-09-14T13:26:16.962Z,3.00
2022-09-14T13:28:48.501Z,2.80
2022-09-14T13:31:20.851Z,2.70
2022-09-14T13:33:51.393Z,2.78
2022-09-14T13:36:22.810Z,2.78
2022-09-14T13:38:52.629Z,2.70
2022-09-14T13:41:23.391Z,1.83
2022-09-14T13:43:56.611Z,2.10
2022-09-14T13:46:26.855Z,1.75
2022-09-14T13:48:55.370Z,2.03
2022-09-14T13:51:26.408Z,2.10
2022-09-14T13:54:04.382Z,2.08
2022-09-14T13:56:34.729Z,1.92
2022-09-14T13:59:21.803Z,2.00
2022-09-14T14:04:56.485Z,2.40
2022-09-14T14:08:05.634Z,2.20
2022-09-14T14:10:37.933Z,2.53
2022-09-14T14:13:06.346Z,2.45
2022-09-14T14:15:39.541Z,2.13
2022-09-14T14:18:39.529Z,2.67
2022-09-14T14:21:18.404Z,2.50
2022-09-14T14:24:09.250Z,2.63
2022-09-14T14:26:35.071Z,2.40
2022-09-14T14:29:09.764Z,2.53
2022-09-14T14:31:39.527Z,2.13
2022-09-14T14:34:59.632Z,2.20
2022-09-14T14:38:07.397Z,1.95
2022-09-14T14:40:49.980Z,2.08
2022-09-14T14:46:04.702Z,1.95
2022-09-14T14:48:52.169Z,1.50
2022-09-14T14:51:21.874Z,2.33
2022-09-14T14:53:49.975Z,1.80
2022-09-14T14:56:18.154Z,2.22
2022-09-14T14:58:49.091Z,2.15
2022-09-14T15:01:19.772Z,2.15
2022-09-14T15:03:47.875Z,2.03
2022-09-14T15:06:22.265Z,2.00
2022-09-14T15:08:55.143Z,1.70
2022-09-14T15:11:24.034Z,2.42
2022-09-14T15:13:52.593Z,2.70
2022-09-14T15:16:22.528Z,2.10
2022-09-14T15:18:50.747Z,1.98
2022-09-14T15:21:20.242Z,2.08
2022-09-14T15:23:50.142Z,2.20
2022-09-14T15:26:59.955Z,2.47
2022-09-14T15:29:33.997Z,1.73
2022-09-14T15:32:15.559Z,2.10
2022-09-14T15:34:44.008Z,2.05
2022-09-14T15:37:13.983Z,1.73
2022-09-14T15:39:46.100Z,1.92
2022-09-14T15:42:17.932Z,1.90
2022-09-14T15:44:47.758Z,2.38
2022-09-14T15:47:18.936Z,1.77
2022-09-14T15:49:48.703Z,2.42
2022-09-14T15:52:18.488Z,1.90
2022-09-14T15:54:47.016Z,1.90
2022-09-14T15:57:15.200Z,2.10
2022-09-14T15:59:43.528Z,2.15
2022-09-14T16:02:12.486Z,2.15
2022-09-14T16:04:41.866Z,2.53
2022-09-14T16:07:10.911Z,1.88
2022-09-14T16:09:41.910Z,2.22
2022-09-14T16:12:12.166Z,2.33
2022-09-14T16:14:47.571Z,2.28
2022-09-14T16:17:15.800Z,2.55
2022-09-14T16:19:49.705Z,2.30
2022-09-14T16:22:18.114Z,2.25
2022-09-14T16:24:54.746Z,2.05
2022-09-14T16:27:25.504Z,2.60
2022-09-14T16:29:53.939Z,2.30
2022-09-14T16:32:22.846Z,2.80
2022-09-14T16:34:55.532Z,2.17
2022-09-14T16:37:24.766Z,2.38
2022-09-14T16:39:54.762Z,2.30
2022-09-14T16:42:25.915Z,2.17
2022-09-14T16:44:54.391Z,2.42
2022-09-14T16:47:22.641Z,2.00
2022-09-14T16:49:53.347Z,2.00
2022-09-14T16:52:23.687Z,2.42
2022-09-14T16:55:00.145Z,2.03
2022-09-14T16:57:45.836Z,2.08
2022-09-14T17:00:14.935Z,2.28
2022-09-14T17:02:43.325Z,2.33
2022-09-14T17:05:11.666Z,2.10
2022-09-14T17:07:45.390Z,1.80
2022-09-14T17:10:23.972Z,2.00
2022-09-14T17:13:00.242Z,2.00
2022-09-14T17:15:36.251Z,2.00
2022-09-14T17:18:05.862Z,2.00
2022-09-14T17:20:34.334Z,2.08
2022-09-14T17:23:11.863Z,1.70
2022-09-14T17:25:49.477Z,1.70
2022-09-14T17:28:21.213Z,1.73
2022-09-14T17:31:00.941Z,1.80
2022-09-14T17:33:34.474Z,1.60
2022-09-14T17:36:16.744Z,1.63
2022-09-14T17:38:56.408Z,1.85
2022-09-14T17:41:30.805Z,1.90
2022-09-14T17:44:02.589Z,1.88
2022-09-14T17:46:45.452Z,1.70
2022-09-14T17:49:28.063Z,2.05
2022-09-14T17:52:03.202Z,2.00
2022-09-14T17:54:44.059Z,1.70
2022-09-14T17:57:32.503Z,1.45
2022-09-14T18:02:47.489Z,1.73
2022-09-14T18:05:38.709Z,1.80
2022-09-14T18:08:25.717Z,1.90
2022-09-14T18:14:33.929Z,1.70
2022-09-14T18:17:09.894Z,1.90
2022-09-14T18:19:59.574Z,2.25
2022-09-14T18:22:42.989Z,1.70
2022-09-14T18:25:22.509Z,1.85
2022-09-14T18:28:11.704Z,1.58
2022-09-14T18:30:54.449Z,1.80
2022-09-14T18:33:24.299Z,1.55
2022-09-14T18:36:22.375Z,2.50
2022-09-14T18:39:06.993Z,2.28
2022-09-14T18:41:57.612Z,1.90
2022-09-14T18:44:27.949Z,1.70
2022-09-14T18:47:04.077Z,2.03
2022-09-14T18:49:37.982Z,1.95
2022-09-14T18:52:09.662Z,2.13
2022-09-14T18:54:43.915Z,1.90
2022-09-14T18:57:14.686Z,2.30
2022-09-14T18:59:47.394Z,2.03
2022-09-14T19:02:17.373Z,2.20
2022-09-14T19:04:56.312Z,2.70
2022-09-14T19:07:26.189Z,2.50
2022-09-14T19:09:54.457Z,2.55
2022-09-14T19:12:24.728Z,2.42
2022-09-14T19:14:59.580Z,2.70
2022-09-14T19:17:35.904Z,2.50
2022-09-14T19:20:11.209Z,2.97
2022-09-14T19:22:51.812Z,3.60
2022-09-14T19:25:20.343Z,3.28
2022-09-14T19:27:54.278Z,3.83
2022-09-14T19:30:42.801Z,3.00
2022-09-14T19:33:20.417Z,2.58
2022-09-14T19:35:53.749Z,3.72
2022-09-14T19:38:23.704Z,3.58
2022-09-14T19:41:03.863Z,3.22
2022-09-14T19:43:40.368Z,3.63
2022-09-14T19:46:18.659Z,3.55
2022-09-14T19:48:55.043Z,4.95
2022-09-14T19:51:25.377Z,4.97
2022-09-14T19:53:59.237Z,4.88
2022-09-14T19:56:36.014Z,5.30
2022-09-14T19:59:13.062Z,6.45
2022-09-14T20:01:47.100Z,9.35
2022-09-14T20:04:23.651Z,12.13
2022-09-14T20:06:55.356Z,9.63
2022-09-14T20:09:27.827Z,12.80
2022-09-14T20:12:00.479Z,11.88
2022-09-14T20:14:36.228Z,10.57
2022-09-14T20:17:25.326Z,10.55
2022-09-14T20:20:00.283Z,11.90
2022-09-14T20:22:32.724Z,13.98
2022-09-14T20:27:52.888Z,17.20
2022-09-14T20:30:21.722Z,15.15
2022-09-14T20:32:50.173Z,14.88
2022-09-14T20:35:21.013Z,16.38
2022-09-14T20:37:49.287Z,15.93
2022-09-14T20:40:20.866Z,17.50
2022-09-14T20:42:52.403Z,17.60
2022-09-14T20:45:20.745Z,15.80
2022-09-14T20:47:49.384Z,15.00
2022-09-14T20:50:19.383Z,14.73
2022-09-14T20:52:48.466Z,15.77
2022-09-14T20:55:18.180Z,15.68
2022-09-14T20:57:46.334Z,16.25
2022-09-14T21:00:15.478Z,19.73
2022-09-14T21:02:43.829Z,24.65
2022-09-14T21:05:12.449Z,22.73
2022-09-14T21:07:42.785Z,20.60
2022-09-14T21:10:11.062Z,18.92
2022-09-14T21:12:41.810Z,18.08
2022-09-14T21:15:10.785Z,22.42
2022-09-14T21:17:39.293Z,24.67
2022-09-14T21:20:09.019Z,25.60
2022-09-14T21:22:37.516Z,27.13
2022-09-14T21:25:11.503Z,26.42
2022-09-14T21:27:41.663Z,25.02
2022-09-14T21:30:11.434Z,26.95
2022-09-14T21:32:47.509Z,26.85
2022-09-14T21:35:16.162Z,24.65
2022-09-14T21:37:47.346Z,23.98
2022-09-14T21:40:18.793Z,24.25
2022-09-14T21:42:47.996Z,24.30
2022-09-14T21:45:16.283Z,24.75
2022-09-14T21:47:46.833Z,25.90
2022-09-14T21:50:14.998Z,25.85
2022-09-14T21:52:48.888Z,25.45
2022-09-14T21:55:19.176Z,25.75
2022-09-14T21:57:50.578Z,25.67
2022-09-14T22:00:27.512Z,26.35
2022-09-14T22:02:58.843Z,24.55
2022-09-14T22:05:27.461Z,23.70
2022-09-14T22:07:55.682Z,24.00
2022-09-14T22:10:27.037Z,24.08
2022-09-14T22:12:55.462Z,23.83
2022-09-14T22:15:32.011Z,25.92
2022-09-14T22:18:02.348Z,24.65
2022-09-14T22:20:30.737Z,25.45
2022-09-14T22:22:59.167Z,25.75
2022-09-14T22:25:29.304Z,27.45
2022-09-14T22:28:00.512Z,27.48
2022-09-14T22:30:28.765Z,27.75
2022-09-14T22:32:56.783Z,28.13
2022-09-14T22:35:24.792Z,27.65
2022-09-14T22:37:52.976Z,26.10
2022-09-14T22:40:21.392Z,23.17
2022-09-14T22:42:51.229Z,20.88
2022-09-14T22:45:19.456Z,18.27
2022-09-14T22:47:48.140Z,17.95
2022-09-14T22:50:26.363Z,17.48
2022-09-14T22:52:56.568Z,14.93
2022-09-14T22:55:25.625Z,15.38
2022-09-14T22:57:56.280Z,16.95
2022-09-14T23:00:24.516Z,15.07
2022-09-14T23:02:52.758Z,13.40
2022-09-14T23:05:21.065Z,14.63
2022-09-14T23:07:49.293Z,16.90
2022-09-14T23:10:17.932Z,15.35
2022-09-14T23:12:46.342Z,15.10
2022-09-14T23:15:17.909Z,15.23
2022-09-14T23:17:52.022Z,14.48
2022-09-14T23:20:20.451Z,16.23
2022-09-14T23:22:48.827Z,16.23
2022-09-14T23:25:17.246Z,16.88
2022-09-14T23:27:45.654Z,18.48
2022-09-14T23:30:16.902Z,23.85
2022-09-14T23:32:45.485Z,19.70
2022-09-14T23:35:13.833Z,23.00
2022-09-14T23:37:43.379Z,22.73
2022-09-14T23:40:12.343Z,24.35
2022-09-14T23:42:40.670Z,24.83
2022-09-14T23:45:11.731Z,25.23
2022-09-14T23:47:41.476Z,25.80
2022-09-14T23:50:13.971Z,23.17
2022-09-14T23:52:42.480Z,21.17
2022-09-14T23:55:13.967Z,19.35
2022-09-14T23:57:42.629Z,18.85
